createdAt,value
2018-03-15T00:00:11.314Z,100754.43
2018-03-15T00:03:18.642Z,100751.44
2018-03-15T00:06:21.798Z,100752.69
2018-03-15T00:09:24.995Z,100753.81
2018-03-15T00:12:28.197Z,100749.94
2018-03-15T00:15:31.382Z,100755.35
2018-03-15T00:18:34.596Z,100759.54
2018-03-15T00:21:37.775Z,100760.10
2018-03-15T00:24:40.960Z,100753.81
2018-03-15T00:27:44.175Z,100750.68
2018-03-15T00:30:47.345Z,100753.27
2018-03-15T00:33:50.551Z,100752.00
2018-03-15T00:36:53.726Z,100752.82
2018-03-15T00:39:56.870Z,100756.68
2018-03-15T00:43:00.164Z,100751.68
2018-03-15T00:46:03.335Z,100755.49
2018-03-15T00:49:06.528Z,100754.56
2018-03-15T00:52:09.724Z,100755.29
2018-03-15T00:55:13.013Z,100754.66
2018-03-15T00:58:16.226Z,100755.34
2018-03-15T01:01:19.412Z,100751.81
2018-03-15T01:04:22.614Z,100753.05
2018-03-15T01:07:25.838Z,100748.32
2018-03-15T01:10:29.011Z,100745.25
2018-03-15T01:13:32.141Z,100738.53
2018-03-15T01:16:35.298Z,100736.51
2018-03-15T01:19:38.469Z,100726.74
2018-03-15T01:22:41.673Z,100720.16
2018-03-15T01:25:44.873Z,100714.79
2018-03-15T01:28:48.074Z,100719.59
2018-03-15T01:31:51.205Z,100713.33
2018-03-15T01:34:54.377Z,100706.51
2018-03-15T01:37:57.567Z,100700.20
2018-03-15T01:41:00.753Z,100698.88
2018-03-15T01:44:03.946Z,100690.38
2018-03-15T01:47:07.135Z,100680.87
2018-03-15T01:50:10.331Z,100671.38
2018-03-15T01:53:13.518Z,100663.66
2018-03-15T01:56:16.714Z,100656.30
2018-03-15T01:59:19.887Z,100656.81
2018-03-15T02:02:23.111Z,100647.52
2018-03-15T02:05:26.383Z,100637.96
2018-03-15T02:08:29.527Z,100637.31
2018-03-15T02:11:32.692Z,100640.51
2018-03-15T02:14:35.843Z,100635.31
2018-03-15T02:17:38.978Z,100626.64
2018-03-15T02:20:42.105Z,100620.27
2018-03-15T02:23:45.246Z,100618.94
2018-03-15T02:26:48.381Z,100612.44
2018-03-15T02:29:51.533Z,100605.58
2018-03-15T02:32:54.768Z,100602.40
2018-03-15T02:35:57.959Z,100600.90
2018-03-15T02:39:01.150Z,100594.70
2018-03-15T02:42:04.387Z,100593.28
2018-03-15T02:45:07.500Z,100596.56
2018-03-15T02:48:10.643Z,100599.94
2018-03-15T02:51:13.848Z,100599.24
2018-03-15T02:54:17.020Z,100599.81
2018-03-15T02:57:20.179Z,100590.38
2018-03-15T03:00:23.430Z,100588.92
2018-03-15T03:03:26.547Z,100579.70
2018-03-15T03:06:29.689Z,100573.06
2018-03-15T03:09:32.905Z,100568.55
2018-03-15T03:12:36.123Z,100571.09
2018-03-15T03:15:39.274Z,100567.17
2018-03-15T03:18:42.435Z,100558.55
2018-03-15T03:21:45.563Z,100545.71
2018-03-15T03:24:48.788Z,100535.27
2018-03-15T03:27:51.923Z,100533.52
2018-03-15T03:30:55.149Z,100536.74
2018-03-15T03:33:58.340Z,100525.30
2018-03-15T03:37:01.646Z,100524.73
2018-03-15T03:40:04.863Z,100519.84
2018-03-15T03:43:08.050Z,100515.36
2018-03-15T03:46:11.342Z,100511.14
2018-03-15T03:49:14.526Z,100510.19
2018-03-15T03:52:17.667Z,100514.86
2018-03-15T03:55:20.907Z,100513.26
2018-03-15T03:58:24.039Z,100518.21
2018-03-15T04:01:27.206Z,100501.85
2018-03-15T04:04:30.341Z,100493.78
2018-03-15T04:07:33.463Z,100484.55
2018-03-15T04:10:36.626Z,100485.50
2018-03-15T04:13:39.751Z,100490.23
2018-03-15T04:16:42.883Z,100484.30
2018-03-15T04:19:46.011Z,100483.61
2018-03-15T04:22:49.160Z,100480.81
2018-03-15T04:25:52.278Z,100474.78
2018-03-15T04:28:55.441Z,100473.01
2018-03-15T04:31:58.649Z,100468.43
2018-03-15T04:35:01.862Z,100461.74
2018-03-15T04:38:05.108Z,100461.01
2018-03-15T04:41:08.266Z,100460.35
2018-03-15T04:44:11.440Z,100450.76
2018-03-15T04:47:14.628Z,100444.55
2018-03-15T04:50:17.815Z,100423.02
2018-03-15T04:53:20.959Z,100406.91
2018-03-15T04:56:24.113Z,100396.58
2018-03-15T04:59:27.290Z,100386.22
2018-03-15T05:02:30.485Z,100380.63
2018-03-15T05:05:33.698Z,100382.38
2018-03-15T05:08:36.894Z,100371.07
2018-03-15T05:11:40.030Z,100370.77
2018-03-15T05:14:43.278Z,100378.71
2018-03-15T05:17:46.414Z,100389.18
2018-03-15T05:20:49.534Z,100379.78
2018-03-15T05:23:52.848Z,100374.13
2018-03-15T05:26:56.190Z,100367.32
2018-03-15T05:29:59.454Z,100362.33
2018-03-15T05:33:02.672Z,100355.59
2018-03-15T05:36:05.873Z,100361.21
2018-03-15T05:39:09.183Z,100368.48
2018-03-15T05:42:12.446Z,100364.15
2018-03-15T05:45:15.751Z,100373.24
2018-03-15T05:48:19.032Z,100383.88
2018-03-15T05:51:22.414Z,100386.17
2018-03-15T05:54:25.623Z,100382.80
2018-03-15T05:57:28.929Z,100381.02
2018-03-15T06:00:32.222Z,100382.89
2018-03-15T06:03:35.535Z,100386.99
2018-03-15T06:06:38.826Z,100378.81
2018-03-15T06:09:42.238Z,100374.53
2018-03-15T06:12:45.557Z,100368.50
2018-03-15T06:15:48.823Z,100357.89
2018-03-15T06:18:53.031Z,100359.55
2018-03-15T06:21:56.266Z,100357.37
2018-03-15T06:24:59.418Z,100355.54
2018-03-15T06:28:02.618Z,100350.54
2018-03-15T06:31:05.830Z,100347.26
2018-03-15T06:34:09.011Z,100340.64
2018-03-15T06:37:12.196Z,100339.66
2018-03-15T06:40:15.476Z,100324.93
2018-03-15T06:43:18.694Z,100318.41
2018-03-15T06:46:21.897Z,100314.72
2018-03-15T06:49:25.062Z,100317.99
2018-03-15T06:52:28.290Z,100311.76
2018-03-15T06:55:31.471Z,100305.20
2018-03-15T06:58:34.583Z,100301.98
2018-03-15T07:01:37.949Z,100303.75
2018-03-15T07:04:41.112Z,100300.75
2018-03-15T07:07:44.305Z,100294.39
2018-03-15T07:10:47.455Z,100290.78
2018-03-15T07:13:50.672Z,100287.74
2018-03-15T07:16:53.842Z,100287.27
2018-03-15T07:19:57.175Z,100276.18
2018-03-15T07:23:00.360Z,100267.15
2018-03-15T07:26:03.541Z,100261.14
2018-03-15T07:29:06.687Z,100260.63
2018-03-15T07:32:09.927Z,100254.56
2018-03-15T07:35:13.115Z,100259.63
2018-03-15T07:38:16.378Z,100252.95
2018-03-15T07:41:19.614Z,100251.86
2018-03-15T07:44:22.835Z,100258.55
2018-03-15T07:47:26.007Z,100252.76
2018-03-15T07:50:29.302Z,100246.21
2018-03-15T07:53:32.485Z,100239.59
2018-03-15T07:56:35.651Z,100239.13
2018-03-15T07:59:38.787Z,100248.89
2018-03-15T08:02:41.962Z,100248.12
2018-03-15T08:05:45.184Z,100247.44
2018-03-15T08:08:48.363Z,100245.55
2018-03-15T08:11:51.545Z,100247.51
2018-03-15T08:14:54.722Z,100252.83
2018-03-15T08:17:57.867Z,100246.32
2018-03-15T08:21:01.050Z,100251.59
2018-03-15T08:24:04.229Z,100255.99
2018-03-15T08:27:07.430Z,100254.56
2018-03-15T08:30:10.639Z,100258.14
2018-03-15T08:33:13.830Z,100242.78
2018-03-15T08:36:17.032Z,100227.87
2018-03-15T08:39:20.203Z,100227.35
2018-03-15T08:42:23.352Z,100228.06
2018-03-15T08:45:26.531Z,100226.91
2018-03-15T08:48:29.706Z,100229.98
2018-03-15T08:51:32.889Z,100219.91
2018-03-15T08:54:36.039Z,100213.25
2018-03-15T08:57:39.170Z,100207.84
2018-03-15T09:00:42.362Z,100201.71
2018-03-15T09:03:45.566Z,100203.08
2018-03-15T09:06:48.769Z,100192.77
2018-03-15T09:09:51.950Z,100195.62
2018-03-15T09:12:55.086Z,100186.34
2018-03-15T09:15:58.261Z,100180.38
2018-03-15T09:19:01.436Z,100169.58
2018-03-15T09:22:04.658Z,100155.58
2018-03-15T09:25:07.834Z,100149.10
2018-03-15T09:28:11.025Z,100151.86
2018-03-15T09:31:14.214Z,100156.06
2018-03-15T09:34:17.429Z,100150.43
2018-03-15T09:37:20.630Z,100145.86
2018-03-15T09:40:23.815Z,100137.84
2018-03-15T09:43:27.030Z,100137.35
2018-03-15T09:46:30.190Z,100139.46
2018-03-15T09:49:33.391Z,100127.99
2018-03-15T09:52:36.540Z,100133.70
2018-03-15T09:55:39.698Z,100130.09
2018-03-15T09:58:42.842Z,100138.88
2018-03-15T10:01:45.983Z,100130.86
2018-03-15T10:04:49.158Z,100122.81
2018-03-15T10:07:52.289Z,100112.87
2018-03-15T10:10:55.402Z,100102.34
2018-03-15T10:13:58.532Z,100086.07
2018-03-15T10:17:01.773Z,100081.41
2018-03-15T10:20:04.854Z,100075.35
2018-03-15T10:23:07.986Z,100072.33
2018-03-15T10:26:11.121Z,100068.27
2018-03-15T10:29:14.308Z,100073.99
2018-03-15T10:32:17.557Z,100077.46
2018-03-15T10:35:25.751Z,100078.01
2018-03-15T10:38:28.991Z,100086.75
2018-03-15T10:41:32.182Z,100086.43
2018-03-15T10:44:36.376Z,100090.80
2018-03-15T10:47:39.597Z,100093.78
2018-03-15T10:50:42.788Z,100089.65
2018-03-15T10:53:45.994Z,100081.88
2018-03-15T10:56:49.657Z,100077.34
2018-03-15T10:59:52.936Z,100081.67
2018-03-15T11:02:56.081Z,100082.35
2018-03-15T11:06:03.449Z,100072.36
2018-03-15T11:09:10.862Z,100065.07
2018-03-15T11:12:14.069Z,100059.40
2018-03-15T11:15:17.361Z,100060.43
2018-03-15T11:18:21.493Z,100052.14
2018-03-15T11:21:24.640Z,100050.68
2018-03-15T11:24:27.790Z,100040.11
2018-03-15T11:27:31.128Z,100035.53
2018-03-15T11:30:34.276Z,100023.61
2018-03-15T11:33:37.446Z,100023.47
2018-03-15T11:36:40.647Z,100017.92
2018-03-15T11:39:43.859Z,100016.27
2018-03-15T11:42:47.035Z,100005.43
2018-03-15T11:45:51.294Z,99995.74
2018-03-15T11:48:54.461Z,99978.23
2018-03-15T11:51:57.599Z,99967.03
2018-03-15T11:55:00.849Z,99958.42
2018-03-15T11:58:04.060Z,99942.02
2018-03-15T12:01:07.315Z,99938.66
2018-03-15T12:04:10.561Z,99918.16
2018-03-15T12:07:13.752Z,99910.76
2018-03-15T12:10:16.911Z,99906.94
2018-03-15T12:13:20.547Z,99911.83
2018-03-15T12:16:23.725Z,99895.41
2018-03-15T12:19:27.005Z,99880.61
2018-03-15T12:22:30.205Z,99861.70
2018-03-15T12:25:34.846Z,99859.01
2018-03-15T12:28:38.061Z,99846.22
2018-03-15T12:31:41.323Z,99837.91
2018-03-15T12:34:44.601Z,99835.98
2018-03-15T12:37:47.826Z,99833.27
2018-03-15T12:40:50.989Z,99827.23
2018-03-15T12:43:54.334Z,99825.46
2018-03-15T12:46:57.742Z,99825.43
2018-03-15T12:50:00.894Z,99824.99
2018-03-15T12:53:04.095Z,99821.12
2018-03-15T12:56:08.202Z,99812.18
2018-03-15T12:59:11.317Z,99806.50
2018-03-15T13:02:14.505Z,99800.63
2018-03-15T13:05:17.635Z,99794.91
2018-03-15T13:08:20.790Z,99786.43
2018-03-15T13:11:23.994Z,99784.57
2018-03-15T13:14:27.201Z,99779.50
2018-03-15T13:17:30.319Z,99768.89
2018-03-15T13:20:33.472Z,99759.83
2018-03-15T13:23:37.937Z,99751.79
2018-03-15T13:26:41.114Z,99746.10
2018-03-15T13:29:44.263Z,99737.32
2018-03-15T13:32:47.479Z,99727.81
2018-03-15T13:35:50.867Z,99720.72
2018-03-15T13:38:54.139Z,99713.58
2018-03-15T13:41:57.275Z,99709.63
2018-03-15T13:45:00.478Z,99699.07
2018-03-15T13:48:03.721Z,99691.03
2018-03-15T13:51:07.306Z,99687.63
2018-03-15T13:54:10.457Z,99689.67
2018-03-15T13:57:13.641Z,99683.74
2018-03-15T14:00:16.866Z,99696.74
2018-03-15T14:03:20.344Z,99713.50
2018-03-15T14:06:23.539Z,99719.15
2018-03-15T14:09:26.730Z,99731.63
2018-03-15T14:12:29.941Z,99734.18
2018-03-15T14:15:33.150Z,99747.24
2018-03-15T14:18:36.318Z,99755.03
2018-03-15T14:21:39.466Z,99753.76
2018-03-15T14:24:43.024Z,99750.39
2018-03-15T14:27:46.222Z,99753.41
2018-03-15T14:30:49.455Z,99753.14
2018-03-15T14:33:52.618Z,99749.07
2018-03-15T14:36:55.773Z,99752.76
2018-03-15T14:39:58.998Z,99742.73
2018-03-15T14:43:02.196Z,99740.45
2018-03-15T14:46:05.389Z,99724.22
2018-03-15T14:49:09.609Z,99720.95
2018-03-15T14:52:12.803Z,99717.97
2018-03-15T14:55:16.003Z,99706.11
2018-03-15T14:58:19.182Z,99696.12
2018-03-15T15:01:22.398Z,99687.68
2018-03-15T15:04:25.802Z,99686.93
2018-03-15T15:07:29.107Z,99687.03
2018-03-15T15:10:32.234Z,99681.64
2018-03-15T15:13:35.363Z,99668.71
2018-03-15T15:16:39.491Z,99663.01
2018-03-15T15:19:42.686Z,99651.95
2018-03-15T15:22:45.893Z,99643.36
2018-03-15T15:25:49.102Z,99634.88
2018-03-15T15:28:52.303Z,99642.89
2018-03-15T15:31:55.534Z,99645.26
2018-03-15T15:34:58.750Z,99644.17
2018-03-15T15:38:01.956Z,99655.03
2018-03-15T15:41:05.187Z,99677.69
2018-03-15T15:44:09.482Z,99687.08
2018-03-15T15:47:12.658Z,99702.60
2018-03-15T15:50:15.962Z,99727.43
2018-03-15T15:53:19.162Z,99723.09
2018-03-15T15:56:22.354Z,99720.35
2018-03-15T15:59:25.556Z,99726.29
2018-03-15T16:02:28.743Z,99731.41
2018-03-15T16:05:31.956Z,99737.30
2018-03-15T16:08:35.140Z,99746.33
2018-03-15T16:11:39.447Z,99748.82
2018-03-15T16:14:42.659Z,99745.48
2018-03-15T16:17:45.922Z,99745.45
2018-03-15T16:20:49.151Z,99752.24
2018-03-15T16:23:52.337Z,99757.22
2018-03-15T16:26:55.567Z,99756.51
2018-03-15T16:29:58.730Z,99765.03
2018-03-15T16:33:01.903Z,99767.60
2018-03-15T16:36:05.130Z,99772.62
2018-03-15T16:39:09.058Z,99771.94
2018-03-15T16:42:12.231Z,99769.73
2018-03-15T16:45:15.414Z,99771.78
2018-03-15T16:48:18.624Z,99772.73
2018-03-15T16:51:21.811Z,99756.38
2018-03-15T16:54:25.035Z,99756.26
2018-03-15T16:57:28.272Z,99780.62
2018-03-15T17:00:31.616Z,99777.51
2018-03-15T17:03:34.794Z,99774.83
2018-03-15T17:06:38.435Z,99761.58
2018-03-15T17:09:41.600Z,99759.25
2018-03-15T17:12:44.729Z,99751.79
2018-03-15T17:15:47.911Z,99751.15
2018-03-15T17:18:51.195Z,99737.33
2018-03-15T17:21:54.440Z,99747.08
2018-03-15T17:24:58.042Z,99753.76
2018-03-15T17:28:01.226Z,99764.19
2018-03-15T17:31:04.508Z,99776.91
2018-03-15T17:34:08.674Z,99795.87
2018-03-15T17:37:12.033Z,99811.17
2018-03-15T17:40:15.341Z,99807.90
2018-03-15T17:43:18.519Z,99818.11
2018-03-15T17:46:21.796Z,99810.99
2018-03-15T17:49:25.567Z,99811.13
2018-03-15T17:52:28.756Z,99822.08
2018-03-15T17:55:32.022Z,99824.19
2018-03-15T17:58:35.120Z,99822.78
2018-03-15T18:01:38.794Z,99825.24
2018-03-15T18:04:42.034Z,99822.66
2018-03-15T18:07:45.295Z,99826.45
2018-03-15T18:10:48.466Z,99838.19
2018-03-15T18:13:51.665Z,99835.16
2018-03-15T18:16:55.321Z,99833.82
2018-03-15T18:19:58.524Z,99843.02
2018-03-15T18:23:01.662Z,99852.93
2018-03-15T18:26:04.930Z,99853.71
2018-03-15T18:29:08.163Z,99858.43
2018-03-15T18:32:11.345Z,99860.75
2018-03-15T18:35:14.544Z,99857.34
2018-03-15T18:38:17.743Z,99848.08
2018-03-15T18:41:20.894Z,99848.55
2018-03-15T18:44:24.052Z,99847.89
2018-03-15T18:47:27.270Z,99850.65
2018-03-15T18:50:30.586Z,99853.35
2018-03-15T18:53:33.740Z,99855.45
2018-03-15T18:56:36.911Z,99855.13
2018-03-15T18:59:40.114Z,99852.62
2018-03-15T19:02:43.301Z,99849.07
2018-03-15T19:05:46.483Z,99858.30
2018-03-15T19:08:49.627Z,99873.25
2018-03-15T19:11:52.779Z,99874.26
2018-03-15T19:14:55.984Z,99882.14
2018-03-15T19:17:59.176Z,99895.16
2018-03-15T19:21:02.367Z,99906.84
2018-03-15T19:24:05.593Z,99928.39
2018-03-15T19:27:08.924Z,99937.95
2018-03-15T19:30:12.155Z,99940.46
2018-03-15T19:33:15.362Z,99938.79
2018-03-15T19:36:18.546Z,99942.89
2018-03-15T19:39:21.797Z,99955.72
2018-03-15T19:42:25.051Z,99959.25
2018-03-15T19:45:28.282Z,99966.60
2018-03-15T19:48:31.414Z,99969.95
2018-03-15T19:51:34.713Z,99974.34
2018-03-15T19:54:38.543Z,99978.16
2018-03-15T19:57:41.690Z,99977.97
2018-03-15T20:00:44.846Z,99981.67
2018-03-15T20:03:48.532Z,99989.50
2018-03-15T20:06:51.806Z,99996.99
2018-03-15T20:09:54.926Z,99993.71
2018-03-15T20:12:58.578Z,99999.76
2018-03-15T20:16:01.751Z,100002.85
2018-03-15T20:19:09.205Z,100000.17
2018-03-15T20:22:12.410Z,100010.57
2018-03-15T20:25:15.620Z,100018.03
2018-03-15T20:28:49.466Z,100024.86
2018-03-15T20:31:52.717Z,100028.93
2018-03-15T20:34:55.906Z,100039.92
2018-03-15T20:37:59.289Z,100044.15
2018-03-15T20:41:36.681Z,100052.03
2018-03-15T20:44:39.899Z,100054.35
2018-03-15T20:48:45.925Z,100052.68
2018-03-15T20:51:49.193Z,100065.93
2018-03-15T20:54:52.373Z,100067.49
2018-03-15T20:57:55.798Z,100085.43
2018-03-15T21:00:59.057Z,100089.02
2018-03-15T21:04:02.299Z,100086.81
2018-03-15T21:07:05.460Z,100090.42
2018-03-15T21:10:08.682Z,100097.01
2018-03-15T21:13:11.862Z,100102.16
2018-03-15T21:16:15.102Z,100103.66
2018-03-15T21:19:18.351Z,100106.11
2018-03-15T21:22:21.795Z,100109.49
2018-03-15T21:25:25.046Z,100106.13
2018-03-15T21:28:28.334Z,100120.32
2018-03-15T21:31:31.514Z,100120.26
2018-03-15T21:34:34.718Z,100117.28
2018-03-15T21:37:37.886Z,100120.08
2018-03-15T21:40:41.145Z,100123.51
2018-03-15T21:43:44.273Z,100129.15
2018-03-15T21:46:47.497Z,100133.76
2018-03-15T21:49:50.703Z,100136.96
2018-03-15T21:52:53.887Z,100141.81
2018-03-15T21:55:57.081Z,100147.04
2018-03-15T21:59:00.266Z,100156.89
2018-03-15T22:02:03.481Z,100157.67
2018-03-15T22:05:06.701Z,100158.22
2018-03-15T22:08:10.174Z,100164.00
2018-03-15T22:11:43.536Z,100162.01
2018-03-15T22:14:49.914Z,100162.32
2018-03-15T22:17:55.443Z,100161.68
2018-03-15T22:20:58.676Z,100168.48
2018-03-15T22:24:01.890Z,100168.18
2018-03-15T22:27:05.688Z,100170.13
2018-03-15T22:30:08.892Z,100176.22
2018-03-15T22:33:39.614Z,100176.47
2018-03-15T22:48:39.959Z,100165.75
2018-03-15T22:53:05.221Z,100169.85
2018-03-15T22:56:27.820Z,100174.53
2018-03-15T23:00:11.279Z,100176.83
2018-03-15T23:07:09.598Z,100169.50
2018-03-15T23:10:38.004Z,100169.91
2018-03-15T23:17:50.912Z,100170.07
2018-03-15T23:21:20.505Z,100156.49
2018-03-15T23:25:00.139Z,100161.61
2018-03-15T23:29:33.022Z,100181.60
2018-03-15T23:33:08.831Z,100187.47
2018-03-15T23:47:58.435Z,100194.34
2018-03-15T23:58:37.125Z,100210.26
